Terminal Aerodrome Forecast
Issued by NWS Quad Cities IA IL

Home | Current Version | Previous Version | Text Only | Print | Product List | Glossary On
Versions: 1 2 3 4 5 6 7 8 9 10 11 12 13 14 15 16 17 18 19 20 21
000
FTUS43 KDVN 241500 AAB
TAFDBQ
TAF AMD
KDBQ 241506Z 2415/2512 16003KT 1/4SM FG VV001
      TEMPO 2416/2418 1/2SM -DZ FG OVC002
     FM241800 17005KT 1SM BR OVC004
     FM241900 18009KT 3SM BR OVC006
     FM250200 22004KT 3/4SM BR BKN008=

USA.gov is the U.S. government's official web portal to all federal, state and local government web resources and services.